Shooks, Minnesota
Current Conditions -  °F | °C
As of 2:13 PM on Saturday 25 Oct 2014 (Local Time) from KFOZ Reporting Station
Clear Clear  
Wind Chill: 55°   Ceiling: Unl
Heat Index: 55°   Visibility: 10mi
Dew Point: 27°   Wind: 12mph
Humidity: 33%   Direction: 290°WNW
Pressure: 29.95"   Gusts: 24mph
Location:  47.8312°N, 94.1459°W
Report Text: KFOZ 251913Z AUTO 29010G21KT 243V353 10SM CLR 13/M03 A2995 RMK AO2
Loading
Personal Weather Stations






























Interactive Weather Map
Tropical Storm Tracking
New forecast layout! Learn more

10-Day Weather Forecast

Advertisements
Track Severe Weather on mobile